createdAt,value
2022-08-26T00:00:00.000Z,14.32
2022-08-26T00:15:00.000Z,14.05
2022-08-26T00:30:00.000Z,14.14
2022-08-26T00:45:00.000Z,14.2
2022-08-26T01:00:00.000Z,14.67
2022-08-26T01:15:00.000Z,14.54
2022-08-26T01:30:00.000Z,14.45
2022-08-26T01:45:00.000Z,14.42
2022-08-26T02:00:00.000Z,14.83
2022-08-26T02:15:00.000Z,14.71
2022-08-26T02:30:00.000Z,14.56
2022-08-26T02:45:00.000Z,14.28
2022-08-26T03:00:00.000Z,14.47
2022-08-26T03:15:00.000Z,14.46
2022-08-26T03:30:00.000Z,14.61
2022-08-26T04:00:00.000Z,14
2022-08-26T04:00:00.000Z,14.12
2022-08-26T04:15:00.000Z,14.19
2022-08-26T04:30:00.000Z,14.16
2022-08-26T04:45:00.000Z,14.12
2022-08-26T05:00:00.000Z,13.86
2022-08-26T05:15:00.000Z,14.13
2022-08-26T05:30:00.000Z,13.71
2022-08-26T06:00:00.000Z,14
2022-08-26T06:00:00.000Z,13.27
2022-08-26T06:15:00.000Z,11.65
2022-08-26T06:30:00.000Z,11.75
2022-08-26T06:45:00.000Z,12.24
2022-08-26T07:00:00.000Z,11.22
2022-08-26T07:15:00.000Z,10.95
2022-08-26T07:45:00.000Z,10
2022-08-26T07:45:00.000Z,10.81
2022-08-26T08:00:00.000Z,12.85
2022-08-26T08:15:00.000Z,14.72
2022-08-26T08:30:00.000Z,15.72
2022-08-26T08:45:00.000Z,17.22
2022-08-26T09:00:00.000Z,15.13
2022-08-26T09:15:00.000Z,15.12
2022-08-26T09:30:00.000Z,15.21
2022-08-26T09:45:00.000Z,15.14
2022-08-26T10:00:00.000Z,15.34
2022-08-26T10:15:00.000Z,16.24
2022-08-26T10:30:00.000Z,18.14
2022-08-26T10:45:00.000Z,15.92
2022-08-26T11:00:00.000Z,16.68
2022-08-26T11:15:00.000Z,17.35
2022-08-26T11:30:00.000Z,15.91
2022-08-26T11:45:00.000Z,15.61
2022-08-26T12:00:00.000Z,14.4
2022-08-26T12:15:00.000Z,12.81
2022-08-26T12:30:00.000Z,11.49
2022-08-26T12:45:00.000Z,10.86
2022-08-26T13:00:00.000Z,10.98
2022-08-26T13:15:00.000Z,10.73
2022-08-26T13:30:00.000Z,10.78
2022-08-26T13:45:00.000Z,8.96
2022-08-26T14:00:00.000Z,9.61
2022-08-26T14:15:00.000Z,11.58
2022-08-26T14:30:00.000Z,10.59
2022-08-26T14:45:00.000Z,12.8
2022-08-26T15:00:00.000Z,11.71
2022-08-26T15:15:00.000Z,11.25
2022-08-26T15:30:00.000Z,13.08
2022-08-26T15:45:00.000Z,13.54
2022-08-26T16:00:00.000Z,11.46
2022-08-26T16:15:00.000Z,12.2
2022-08-26T16:30:00.000Z,12.29
2022-08-26T16:45:00.000Z,11.25
2022-08-26T17:00:00.000Z,10.08
2022-08-26T17:15:00.000Z,10.14
2022-08-26T17:30:00.000Z,10.28
2022-08-26T17:45:00.000Z,10.06
2022-08-26T18:00:00.000Z,9.8
2022-08-26T18:15:00.000Z,9.94
2022-08-26T18:30:00.000Z,10.56
2022-08-26T18:45:00.000Z,9.94
2022-08-26T19:00:00.000Z,10.74
2022-08-26T19:15:00.000Z,10.98
2022-08-26T19:30:00.000Z,10.88
2022-08-26T19:45:00.000Z,10.01
2022-08-26T20:00:00.000Z,10.54
2022-08-26T20:30:00.000Z,10
2022-08-26T20:30:00.000Z,10.56
2022-08-26T20:45:00.000Z,10.6
2022-08-26T21:00:00.000Z,11.21
2022-08-26T21:15:00.000Z,10.22
2022-08-26T21:30:00.000Z,8.42
2022-08-26T21:45:00.000Z,7.64
2022-08-26T22:00:00.000Z,7.41
2022-08-26T22:15:00.000Z,8.08
2022-08-26T22:30:00.000Z,7.98
2022-08-26T22:45:00.000Z,7.99
2022-08-26T23:15:00.000Z,7
2022-08-26T23:15:00.000Z,7.89
2022-08-26T23:30:00.000Z,8.55
2022-08-26T23:45:00.000Z,8.27
